Terminal Aerodrome Forecast
Issued by NWS

Home | Current Version | Previous Version | Graphics & Text | Print | Product List | Glossary On
Versions: 1 2 3 4 5 6 7 8 9 10 11 12 13 14 15
010
FTUS43 KICT 171033 AAA
TAFRSL
TAF AMD
KRSL 171033Z 1711/1806 19017G24KT P6SM SCT015
      TEMPO 1711/1713 BKN015
     FM171300 20011KT P6SM SCT015 BKN060
     FM171700 23007KT P6SM SCT250
     FM172300 32007KT P6SM SCT250
     FM180500 34019G27KT P6SM SCT200=

USA.gov is the U.S. government's official web portal to all federal, state and local government web resources and services.